Time;durP1;ratioP1;P1;durP2;ratioP2;P2;SDS_P1;SDS_P2;PMS_P1;PMS_P2;Temp;Humidity;BMP_temperature;BMP_pressure;BME280_temperature;BME280_humidity;BME280_pressure;Samples;Min_cycle;Max_cycle;Signal;HPM_P1;HPM_P2
2022/10/10 00:01:11;;;;;;;6.72;3.88;;;;;;;;;;4897491;29;20056;-83
2022/10/10 00:03:37;;;;;;;8.02;3.75;;;;;;;;;;4898883;29;20033;-83
2022/10/10 00:06:03;;;;;;;4.38;3.53;;;;;;;;;;4897556;29;20099;-82
2022/10/10 00:08:28;;;;;;;8.77;5.53;;;;;;;;;;4898758;29;20047;-83
2022/10/10 00:10:54;;;;;;;8.60;5.07;;;;;;;;;;4898373;29;20029;-82
2022/10/10 00:13:19;;;;;;;10.23;5.70;;;;;;;;;;4898448;29;20028;-83
2022/10/10 00:15:45;;;;;;;6.38;4.80;;;;;;;;;;4898364;29;20127;-83
2022/10/10 00:18:10;;;;;;;5.70;4.68;;;;;;;;;;4898185;29;20043;-84
2022/10/10 00:20:36;;;;;;;5.78;4.18;;;;;;;;;;4897238;29;20041;-83
2022/10/10 00:23:01;;;;;;;9.15;4.18;;;;;;;;;;4898201;29;20049;-83
2022/10/10 00:25:27;;;;;;;4.82;3.50;;;;;;;;;;4896742;29;20047;-83
2022/10/10 00:27:53;;;;;;;5.85;3.33;;;;;;;;;;4896910;29;20501;-82
2022/10/10 00:30:18;;;;;;;4.75;3.60;;;;;;;;;;4898238;29;20036;-83
2022/10/10 00:32:44;;;;;;;5.10;4.03;;;;;;;;;;4898479;29;20043;-83
2022/10/10 00:35:09;;;;;;;6.38;4.22;;;;;;;;;;4897700;29;20036;-83
2022/10/10 00:37:35;;;;;;;9.10;5.85;;;;;;;;;;4898104;29;20033;-83
2022/10/10 00:40:01;;;;;;;9.20;5.70;;;;;;;;;;4898376;29;20498;-83
2022/10/10 00:42:26;;;;;;;7.97;5.50;;;;;;;;;;4897012;29;20036;-83
2022/10/10 00:45:31;;;;;;;9.57;5.00;;;;;;;;;;4898443;29;20119;-83
2022/10/10 00:48:06;;;;;;;8.57;5.25;;;;;;;;;;4900549;29;20040;-84
2022/10/10 00:50:36;;;;;;;9.00;5.68;;;;;;;;;;4902223;29;20387;-81
2022/10/10 00:53:04;;;;;;;6.32;4.63;;;;;;;;;;4901793;29;20036;-81
2022/10/10 00:55:30;;;;;;;6.45;3.95;;;;;;;;;;4901400;29;20115;-82
2022/10/10 00:57:56;;;;;;;5.55;3.92;;;;;;;;;;4901533;29;20457;-83
2022/10/10 01:00:21;;;;;;;5.57;3.25;;;;;;;;;;4900246;29;20037;-82
2022/10/10 01:02:47;;;;;;;4.90;3.70;;;;;;;;;;4901779;29;20051;-82
2022/10/10 01:05:12;;;;;;;9.65;3.70;;;;;;;;;;4900477;29;20036;-83
2022/10/10 01:07:38;;;;;;;7.45;3.60;;;;;;;;;;4901953;29;20028;-83
2022/10/10 01:10:19;;;;;;;7.00;3.25;;;;;;;;;;4900211;29;20436;-82
2022/10/10 01:12:51;;;;;;;4.78;3.17;;;;;;;;;;4900199;29;20095;-83
2022/10/10 01:15:34;;;;;;;6.45;3.15;;;;;;;;;;4901115;29;20089;-82
2022/10/10 01:18:55;;;;;;;6.55;3.40;;;;;;;;;;4900494;29;20044;-83
2022/10/10 01:21:32;;;;;;;5.72;3.67;;;;;;;;;;4824703;29;20082;-82
2022/10/10 01:24:35;;;;;;;7.65;3.60;;;;;;;;;;4891070;29;20068;-82
2022/10/10 01:27:12;;;;;;;7.18;3.47;;;;;;;;;;4900938;29;20482;-83
2022/10/10 01:29:41;;;;;;;6.43;3.83;;;;;;;;;;4899635;29;20044;-83
2022/10/10 01:32:18;;;;;;;7.63;3.97;;;;;;;;;;4900516;29;20095;-82
2022/10/10 01:34:53;;;;;;;7.50;4.00;;;;;;;;;;4899624;29;20044;-83
2022/10/10 01:37:25;;;;;;;5.25;3.10;;;;;;;;;;4900843;29;20047;-84
2022/10/10 01:39:59;;;;;;;5.07;3.05;;;;;;;;;;4899773;29;20120;-82
2022/10/10 01:42:56;;;;;;;5.60;3.53;;;;;;;;;;4900762;29;20036;-83
2022/10/10 01:45:22;;;;;;;7.80;2.90;;;;;;;;;;4899554;29;20044;-82
2022/10/10 01:47:49;;;;;;;5.28;3.10;;;;;;;;;;4900084;29;20040;-83
2022/10/10 01:50:18;;;;;;;4.55;3.08;;;;;;;;;;4900406;29;20040;-82
2022/10/10 01:53:01;;;;;;;6.00;3.75;;;;;;;;;;4900602;29;20044;-83
2022/10/10 01:55:50;;;;;;;5.88;3.10;;;;;;;;;;4900461;29;20079;-82
2022/10/10 01:58:47;;;;;;;4.78;3.33;;;;;;;;;;4900293;29;20087;-82
2022/10/10 02:01:33;;;;;;;5.25;3.42;;;;;;;;;;4890130;29;20052;-83
2022/10/10 02:04:26;;;;;;;6.53;3.33;;;;;;;;;;4898921;29;20135;-82
2022/10/10 02:06:58;;;;;;;6.33;3.27;;;;;;;;;;4898919;29;20529;-83
2022/10/10 02:09:30;;;;;;;5.00;3.00;;;;;;;;;;4899167;29;20040;-84
2022/10/10 02:11:58;;;;;;;6.38;3.25;;;;;;;;;;4900680;29;20426;-82
2022/10/10 02:14:29;;;;;;;5.82;3.55;;;;;;;;;;4900267;29;20032;-83
2022/10/10 02:16:57;;;;;;;8.65;3.67;;;;;;;;;;4899097;29;20073;-82
2022/10/10 02:19:24;;;;;;;5.40;3.60;;;;;;;;;;4900158;29;20044;-83
2022/10/10 02:21:51;;;;;;;8.15;3.55;;;;;;;;;;4900291;29;20040;-83
2022/10/10 02:24:19;;;;;;;7.47;3.20;;;;;;;;;;4900035;29;20071;-83
2022/10/10 02:26:52;;;;;;;5.82;3.50;;;;;;;;;;4899076;29;20040;-82
2022/10/10 02:29:23;;;;;;;6.03;3.10;;;;;;;;;;4898695;29;20092;-83
2022/10/10 02:31:55;;;;;;;6.05;2.92;;;;;;;;;;4900294;29;20124;-82
2022/10/10 02:34:28;;;;;;;5.40;3.17;;;;;;;;;;4898738;29;20037;-83
2022/10/10 02:36:59;;;;;;;5.32;2.80;;;;;;;;;;4898959;29;20100;-83
2022/10/10 02:39:28;;;;;;;6.43;3.10;;;;;;;;;;4900166;29;20135;-82
2022/10/10 02:41:54;;;;;;;4.35;2.58;;;;;;;;;;4899989;29;20044;-82
2022/10/10 02:44:21;;;;;;;5.07;2.60;;;;;;;;;;4899665;29;20048;-83
2022/10/10 02:46:46;;;;;;;5.60;3.00;;;;;;;;;;4899882;29;20103;-83
2022/10/10 02:49:12;;;;;;;3.15;2.50;;;;;;;;;;4882738;29;20135;-82
2022/10/10 02:51:38;;;;;;;3.60;2.75;;;;;;;;;;4900051;29;20116;-83
2022/10/10 02:54:05;;;;;;;6.47;3.08;;;;;;;;;;4899574;29;20157;-82
2022/10/10 02:56:31;;;;;;;4.40;2.97;;;;;;;;;;4914094;29;20044;-83
2022/10/10 02:58:56;;;;;;;4.75;2.60;;;;;;;;;;4898935;29;20041;-83
2022/10/10 03:01:22;;;;;;;4.38;2.80;;;;;;;;;;4899593;29;20093;-83
2022/10/10 03:03:48;;;;;;;5.00;2.95;;;;;;;;;;4899370;29;20049;-83
2022/10/10 03:06:14;;;;;;;4.95;2.90;;;;;;;;;;4899467;29;20038;-82
2022/10/10 03:08:39;;;;;;;4.55;2.90;;;;;;;;;;4898617;29;20045;-82
2022/10/10 03:11:05;;;;;;;10.50;2.60;;;;;;;;;;4898280;29;20036;-82
2022/10/10 03:13:31;;;;;;;3.13;2.67;;;;;;;;;;4898013;29;20079;-83
2022/10/10 03:15:56;;;;;;;3.72;2.50;;;;;;;;;;4897873;29;20056;-83
2022/10/10 03:18:22;;;;;;;4.22;2.70;;;;;;;;;;4899345;29;20032;-83
2022/10/10 03:20:53;;;;;;;6.72;2.60;;;;;;;;;;4913856;29;20044;-83
2022/10/10 03:23:19;;;;;;;3.88;2.97;;;;;;;;;;4899163;29;20401;-83
2022/10/10 03:25:45;;;;;;;4.50;2.88;;;;;;;;;;4898889;29;20466;-82
2022/10/10 03:28:11;;;;;;;3.65;2.80;;;;;;;;;;4899292;29;20033;-84
2022/10/10 03:30:37;;;;;;;4.22;2.58;;;;;;;;;;4898248;29;20516;-82
2022/10/10 03:33:02;;;;;;;5.50;2.63;;;;;;;;;;4899414;29;20442;-82
2022/10/10 03:35:28;;;;;;;4.22;2.63;;;;;;;;;;4898887;29;20453;-82
2022/10/10 03:37:54;;;;;;;5.47;2.80;;;;;;;;;;4899423;29;20056;-83
2022/10/10 03:40:20;;;;;;;5.28;2.50;;;;;;;;;;4899019;29;20091;-82
2022/10/10 03:42:45;;;;;;;7.68;2.45;;;;;;;;;;4899076;29;20560;-81
2022/10/10 03:45:11;;;;;;;7.85;2.63;;;;;;;;;;4902623;29;20040;-85
2022/10/10 03:47:36;;;;;;;5.60;3.28;;;;;;;;;;4902389;29;20052;-84
2022/10/10 03:50:02;;;;;;;4.38;3.03;;;;;;;;;;4916817;29;20113;-83
2022/10/10 03:52:28;;;;;;;6.60;3.33;;;;;;;;;;4901494;29;20439;-85
2022/10/10 03:54:53;;;;;;;6.78;3.70;;;;;;;;;;4901541;29;20490;-87
2022/10/10 03:57:19;;;;;;;6.88;3.17;;;;;;;;;;4902148;29;20087;-84
2022/10/10 03:59:44;;;;;;;7.80;3.30;;;;;;;;;;4900198;29;20032;-86
2022/10/10 04:02:10;;;;;;;8.60;3.30;;;;;;;;;;4901617;29;20050;-86
2022/10/10 04:04:35;;;;;;;5.70;3.22;;;;;;;;;;4901430;29;20033;-86
2022/10/10 04:07:01;;;;;;;10.05;6.07;;;;;;;;;;4901329;29;20040;-84
2022/10/10 04:09:26;;;;;;;10.02;4.22;;;;;;;;;;4901167;29;20048;-86
2022/10/10 04:11:52;;;;;;;7.18;3.75;;;;;;;;;;4899064;29;20028;-86
2022/10/10 04:14:17;;;;;;;6.50;3.85;;;;;;;;;;4899679;29;20173;-86
2022/10/10 04:16:42;;;;;;;3.63;3.05;;;;;;;;;;4899595;29;20037;-85
2022/10/10 04:19:08;;;;;;;3.40;2.67;;;;;;;;;;4902021;29;20429;-85
2022/10/10 04:21:34;;;;;;;5.30;2.80;;;;;;;;;;4905105;29;20067;-85
2022/10/10 04:23:59;;;;;;;4.07;2.97;;;;;;;;;;4918231;29;20048;-84
2022/10/10 04:26:25;;;;;;;5.28;2.90;;;;;;;;;;4902346;29;20039;-85
2022/10/10 04:28:50;;;;;;;6.95;3.90;;;;;;;;;;4901509;29;20046;-85
2022/10/10 04:31:16;;;;;;;7.32;3.90;;;;;;;;;;4902013;29;20045;-85
2022/10/10 04:33:41;;;;;;;7.82;4.60;;;;;;;;;;4902239;29;20068;-85
2022/10/10 04:36:07;;;;;;;12.70;4.80;;;;;;;;;;4901944;29;20120;-85
2022/10/10 04:38:32;;;;;;;20.63;6.32;;;;;;;;;;4900677;29;20036;-83
2022/10/10 04:40:58;;;;;;;19.15;7.05;;;;;;;;;;4916375;29;20439;-85
2022/10/10 04:43:23;;;;;;;18.30;6.90;;;;;;;;;;4900758;29;20417;-85
2022/10/10 04:45:49;;;;;;;14.77;6.20;;;;;;;;;;4902144;29;20068;-85
2022/10/10 04:48:14;;;;;;;27.38;10.35;;;;;;;;;;4901094;29;20032;-85
2022/10/10 04:50:39;;;;;;;27.83;12.80;;;;;;;;;;4900471;29;20033;-85
2022/10/10 04:53:05;;;;;;;44.78;18.23;;;;;;;;;;4900526;29;20390;-84
2022/10/10 04:55:30;;;;;;;29.85;11.20;;;;;;;;;;4901277;29;20063;-85
2022/10/10 04:57:56;;;;;;;31.83;11.43;;;;;;;;;;4901692;29;20037;-85
2022/10/10 05:00:21;;;;;;;31.13;11.45;;;;;;;;;;4916889;29;20040;-85
2022/10/10 05:02:47;;;;;;;20.30;8.40;;;;;;;;;;4916326;29;20055;-85
2022/10/10 05:05:12;;;;;;;21.40;8.43;;;;;;;;;;4900669;29;20029;-85
2022/10/10 05:07:38;;;;;;;13.32;7.40;;;;;;;;;;4900852;29;20100;-85
2022/10/10 05:10:05;;;;;;;15.07;7.38;;;;;;;;;;4900628;29;20037;-85
2022/10/10 05:12:31;;;;;;;15.38;7.78;;;;;;;;;;4900117;29;20127;-85
2022/10/10 05:14:56;;;;;;;20.13;6.10;;;;;;;;;;4901320;29;20072;-85
2022/10/10 05:17:22;;;;;;;20.63;4.80;;;;;;;;;;4900254;29;20044;-84
2022/10/10 05:19:47;;;;;;;7.78;4.68;;;;;;;;;;4899987;29;20049;-85
2022/10/10 05:22:13;;;;;;;23.85;9.13;;;;;;;;;;4902795;29;20091;-86
2022/10/10 05:24:39;;;;;;;22.48;6.07;;;;;;;;;;4906687;29;20033;-86
2022/10/10 05:27:04;;;;;;;9.35;5.80;;;;;;;;;;4921750;29;20044;-85
2022/10/10 05:29:30;;;;;;;12.27;5.72;;;;;;;;;;4905905;29;20044;-85
2022/10/10 05:31:55;;;;;;;8.30;5.30;;;;;;;;;;4920541;29;20036;-85
2022/10/10 05:34:21;;;;;;;8.93;5.15;;;;;;;;;;4906911;29;20043;-85
2022/10/10 05:36:46;;;;;;;11.68;4.65;;;;;;;;;;4905432;29;20033;-85
2022/10/10 05:39:12;;;;;;;9.80;4.85;;;;;;;;;;4906753;29;20062;-86
2022/10/10 05:41:37;;;;;;;10.88;4.35;;;;;;;;;;4906691;29;20044;-86
2022/10/10 05:44:03;;;;;;;13.50;5.18;;;;;;;;;;4904171;29;20063;-85
2022/10/10 05:46:28;;;;;;;7.07;4.15;;;;;;;;;;4900750;29;20137;-85
2022/10/10 05:48:54;;;;;;;15.35;5.00;;;;;;;;;;4899103;29;20060;-84
2022/10/10 05:51:20;;;;;;;17.52;5.60;;;;;;;;;;4901048;29;20060;-85
2022/10/10 05:53:46;;;;;;;21.45;8.77;;;;;;;;;;4899169;29;20405;-84
2022/10/10 05:56:14;;;;;;;17.15;7.40;;;;;;;;;;4898844;29;20039;-85
2022/10/10 05:58:39;;;;;;;12.93;6.22;;;;;;;;;;4900233;29;20118;-84
2022/10/10 06:01:06;;;;;;;12.30;5.32;;;;;;;;;;4898936;29;20123;-84
2022/10/10 06:03:32;;;;;;;7.72;4.35;;;;;;;;;;4898517;29;20081;-83
2022/10/10 06:05:58;;;;;;;8.13;4.30;;;;;;;;;;4914320;29;20028;-84
2022/10/10 06:08:24;;;;;;;8.10;4.40;;;;;;;;;;4914885;29;20040;-84
2022/10/10 06:10:50;;;;;;;26.30;5.30;;;;;;;;;;4900291;29;20092;-85
2022/10/10 06:13:17;;;;;;;8.65;4.97;;;;;;;;;;4899470;29;20466;-85
2022/10/10 06:15:42;;;;;;;7.63;4.10;;;;;;;;;;4899842;29;20043;-84
2022/10/10 06:18:08;;;;;;;9.57;4.32;;;;;;;;;;4900113;29;20044;-83
2022/10/10 06:20:35;;;;;;;5.53;3.88;;;;;;;;;;4900131;29;20051;-85
2022/10/10 06:23:01;;;;;;;5.68;3.40;;;;;;;;;;4899646;29;20119;-84
2022/10/10 06:25:26;;;;;;;5.65;3.25;;;;;;;;;;4899281;29;20119;-86
2022/10/10 06:27:52;;;;;;;5.15;3.70;;;;;;;;;;4900083;29;20044;-86
2022/10/10 06:30:17;;;;;;;4.90;3.67;;;;;;;;;;4900030;29;20041;-87
2022/10/10 06:32:42;;;;;;;5.40;3.58;;;;;;;;;;4898885;29;20043;-87
2022/10/10 06:35:08;;;;;;;5.10;3.33;;;;;;;;;;4899996;29;20048;-85
2022/10/10 06:37:34;;;;;;;4.95;3.50;;;;;;;;;;4899793;29;20052;-85
2022/10/10 06:39:59;;;;;;;6.18;3.55;;;;;;;;;;4900172;29;20040;-84
2022/10/10 06:42:25;;;;;;;7.63;3.40;;;;;;;;;;4897721;29;20037;-85
2022/10/10 06:44:55;;;;;;;4.50;3.10;;;;;;;;;;4899133;29;20061;-85
2022/10/10 06:47:21;;;;;;;5.60;3.03;;;;;;;;;;4899429;29;20033;-85
2022/10/10 06:49:47;;;;;;;6.90;2.90;;;;;;;;;;4899346;29;20048;-85
2022/10/10 06:52:12;;;;;;;14.43;2.70;;;;;;;;;;4899312;29;20100;-84
2022/10/10 06:54:38;;;;;;;3.08;2.40;;;;;;;;;;4899358;29;20050;-85
2022/10/10 06:57:03;;;;;;;3.72;2.58;;;;;;;;;;4899942;29;20036;-87
2022/10/10 06:59:29;;;;;;;3.65;2.42;;;;;;;;;;4904140;29;20039;-88
2022/10/10 07:01:54;;;;;;;5.15;2.90;;;;;;;;;;4900614;29;20044;-86
2022/10/10 07:04:19;;;;;;;5.15;3.15;;;;;;;;;;4901239;29;20036;-87
2022/10/10 07:06:45;;;;;;;7.70;3.00;;;;;;;;;;4901123;29;20060;-86
2022/10/10 07:09:10;;;;;;;3.13;2.50;;;;;;;;;;4917077;29;20413;-86
2022/10/10 07:11:36;;;;;;;3.00;2.50;;;;;;;;;;4898332;29;20052;-87
2022/10/10 07:14:01;;;;;;;2.70;2.40;;;;;;;;;;4899976;29;20409;-86
2022/10/10 07:16:27;;;;;;;3.05;2.38;;;;;;;;;;4898759;29;20032;-86
2022/10/10 07:18:52;;;;;;;2.72;2.30;;;;;;;;;;4899402;29;20052;-86
2022/10/10 07:21:18;;;;;;;4.93;2.38;;;;;;;;;;4900559;29;20085;-87
2022/10/10 07:23:43;;;;;;;6.65;2.72;;;;;;;;;;4898072;29;20501;-86
2022/10/10 07:26:11;;;;;;;5.43;2.75;;;;;;;;;;4901976;29;20405;-87
2022/10/10 07:28:38;;;;;;;5.90;2.60;;;;;;;;;;4900516;29;20044;-86
2022/10/10 07:31:09;;;;;;;4.03;2.80;;;;;;;;;;4902040;29;20409;-86
2022/10/10 07:33:41;;;;;;;9.38;3.15;;;;;;;;;;4898311;29;20508;-86
2022/10/10 07:36:07;;;;;;;5.93;2.92;;;;;;;;;;4898779;29;20039;-86
2022/10/10 07:38:33;;;;;;;8.38;3.33;;;;;;;;;;4902023;29;20037;-86
2022/10/10 07:40:59;;;;;;;8.23;3.50;;;;;;;;;;4899350;29;20036;-87
2022/10/10 07:43:24;;;;;;;8.98;3.60;;;;;;;;;;4901034;29;20276;-87
2022/10/10 07:45:50;;;;;;;17.40;2.53;;;;;;;;;;4900189;29;20044;-86
2022/10/10 07:48:16;;;;;;;6.95;3.00;;;;;;;;;;4906334;29;20064;-87
2022/10/10 07:50:43;;;;;;;7.90;3.13;;;;;;;;;;4916944;29;20047;-88
2022/10/10 07:53:09;;;;;;;4.25;2.70;;;;;;;;;;4920729;29;20068;-86
2022/10/10 07:55:41;;;;;;;9.65;2.90;;;;;;;;;;4921079;29;20040;-87
2022/10/10 07:58:11;;;;;;;5.70;2.53;;;;;;;;;;4920427;29;20036;-87
2022/10/10 08:00:39;;;;;;;5.53;2.22;;;;;;;;;;4920493;29;20056;-86
2022/10/10 08:03:06;;;;;;;9.02;2.40;;;;;;;;;;4917947;29;20063;-87
2022/10/10 08:05:31;;;;;;;7.57;2.47;;;;;;;;;;4931771;29;20072;-87
2022/10/10 08:07:56;;;;;;;8.38;2.55;;;;;;;;;;4917493;29;20060;-87
2022/10/10 08:10:22;;;;;;;7.40;2.60;;;;;;;;;;4917882;29;20385;-87
2022/10/10 08:12:47;;;;;;;6.72;2.72;;;;;;;;;;4917960;29;20044;-87
2022/10/10 08:15:13;;;;;;;4.15;2.50;;;;;;;;;;4923535;29;20036;-87
2022/10/10 08:17:38;;;;;;;7.43;3.03;;;;;;;;;;4916076;29;20509;-87
2022/10/10 08:20:05;;;;;;;7.85;2.17;;;;;;;;;;4917847;29;20028;-87
2022/10/10 08:22:31;;;;;;;5.70;2.10;;;;;;;;;;4909727;29;20142;-86
2022/10/10 08:24:56;;;;;;;8.45;2.55;;;;;;;;;;4910423;29;20545;-87
2022/10/10 08:27:21;;;;;;;4.55;2.30;;;;;;;;;;4914872;29;20036;-87
2022/10/10 08:29:47;;;;;;;6.65;2.30;;;;;;;;;;4916926;29;20040;-87
2022/10/10 08:32:13;;;;;;;8.73;2.15;;;;;;;;;;4917591;29;20032;-87
2022/10/10 08:34:38;;;;;;;5.10;2.30;;;;;;;;;;4922746;29;20044;-87
2022/10/10 08:37:04;;;;;;;11.57;2.78;;;;;;;;;;4917516;29;20040;-87
2022/10/10 08:39:29;;;;;;;6.40;2.20;;;;;;;;;;4916980;29;20418;-87
2022/10/10 08:41:58;;;;;;;8.35;2.47;;;;;;;;;;4938140;29;20154;-87
2022/10/10 08:44:41;;;;;;;4.32;2.28;;;;;;;;;;4918456;29;20039;-87
2022/10/10 08:47:36;;;;;;;7.10;2.50;;;;;;;;;;4917006;29;20046;-88
2022/10/10 08:50:15;;;;;;;4.82;2.05;;;;;;;;;;4924146;29;20054;-88
2022/10/10 08:52:49;;;;;;;5.10;2.10;;;;;;;;;;4918668;29;20036;-86
2022/10/10 08:55:29;;;;;;;4.63;2.45;;;;;;;;;;4916872;29;20095;-86
2022/10/10 08:58:16;;;;;;;3.30;2.10;;;;;;;;;;4908574;29;20103;-85
2022/10/10 09:00:54;;;;;;;5.72;2.13;;;;;;;;;;4919257;29;20048;-85
2022/10/10 09:03:19;;;;;;;3.65;1.90;;;;;;;;;;4918027;29;20036;-86
2022/10/10 09:06:06;;;;;;;6.65;2.17;;;;;;;;;;4918862;29;20092;-88
2022/10/10 09:09:02;;;;;;;4.90;2.03;;;;;;;;;;4919811;29;20040;-88
2022/10/10 09:11:33;;;;;;;5.15;2.13;;;;;;;;;;4919554;29;20092;-88
2022/10/10 09:14:06;;;;;;;4.30;1.77;;;;;;;;;;4918072;29;20064;-89
2022/10/10 09:16:40;;;;;;;4.50;1.90;;;;;;;;;;4919231;29;20060;-88
2022/10/10 09:19:26;;;;;;;7.43;2.00;;;;;;;;;;4921697;29;20048;-88
2022/10/10 09:21:58;;;;;;;8.20;2.47;;;;;;;;;;4921635;29;20051;-88
2022/10/10 09:24:33;;;;;;;6.82;2.08;;;;;;;;;;4923480;29;20115;-88
2022/10/10 09:27:04;;;;;;;5.40;2.10;;;;;;;;;;4922741;29;20036;-88
2022/10/10 09:29:42;;;;;;;3.92;1.90;;;;;;;;;;4920014;29;20493;-87
2022/10/10 09:32:13;;;;;;;6.97;2.67;;;;;;;;;;4923615;29;20123;-88
2022/10/10 09:34:45;;;;;;;6.60;2.40;;;;;;;;;;4936689;29;20442;-89
2022/10/10 09:37:21;;;;;;;7.90;2.38;;;;;;;;;;4938846;29;20044;-89
2022/10/10 09:39:57;;;;;;;4.57;2.25;;;;;;;;;;4922652;29;20134;-87
2022/10/10 09:42:33;;;;;;;6.60;2.20;;;;;;;;;;4921335;29;20068;-87
2022/10/10 09:44:59;;;;;;;4.40;2.03;;;;;;;;;;4922001;29;20496;-87
2022/10/10 09:47:25;;;;;;;9.27;2.88;;;;;;;;;;4920443;29;20059;-86
2022/10/10 09:49:50;;;;;;;8.60;2.25;;;;;;;;;;4918950;29;20044;-85
2022/10/10 09:52:26;;;;;;;7.70;2.00;;;;;;;;;;4920821;29;20028;-86
2022/10/10 09:54:59;;;;;;;5.13;1.70;;;;;;;;;;4917774;29;20040;-86
2022/10/10 09:57:30;;;;;;;6.60;1.80;;;;;;;;;;4918651;29;20047;-86
2022/10/10 09:59:55;;;;;;;6.32;1.80;;;;;;;;;;4919950;29;20040;-87
2022/10/10 10:02:24;;;;;;;4.22;1.63;;;;;;;;;;4921579;29;20508;-87
2022/10/10 10:04:51;;;;;;;5.53;1.58;;;;;;;;;;4919809;29;20043;-89
2022/10/10 10:07:19;;;;;;;7.78;1.80;;;;;;;;;;4920976;29;20043;-87
2022/10/10 10:09:54;;;;;;;6.13;1.85;;;;;;;;;;4920413;29;20066;-85
2022/10/10 10:12:27;;;;;;;10.85;1.80;;;;;;;;;;4917527;29;20036;-85
2022/10/10 10:15:03;;;;;;;5.30;1.65;;;;;;;;;;4919302;29;20040;-87
2022/10/10 10:17:29;;;;;;;7.53;1.95;;;;;;;;;;4917382;29;20051;-87
2022/10/10 10:19:54;;;;;;;2.67;1.70;;;;;;;;;;4902457;29;20020;-87
2022/10/10 10:22:31;;;;;;;8.18;2.00;;;;;;;;;;4919160;29;20036;-86
2022/10/10 10:24:57;;;;;;;4.03;1.75;;;;;;;;;;4917652;29;20040;-87
2022/10/10 10:27:25;;;;;;;3.78;1.70;;;;;;;;;;4906426;29;20524;-87
2022/10/10 10:29:53;;;;;;;3.58;1.88;;;;;;;;;;4900082;29;20041;-87
2022/10/10 10:33:03;;;;;;;4.43;1.75;;;;;;;;;;4899567;29;20040;-88
2022/10/10 10:35:52;;;;;;;3.83;1.77;;;;;;;;;;4821225;29;20161;-88
2022/10/10 10:38:42;;;;;;;4.50;1.70;;;;;;;;;;4901214;29;20107;-87
2022/10/10 10:41:29;;;;;;;4.63;1.60;;;;;;;;;;4900298;29;20083;-88
2022/10/10 10:44:06;;;;;;;7.43;2.00;;;;;;;;;;4862514;29;1100088;-88
2022/10/10 10:47:03;;;;;;;8.05;1.90;;;;;;;;;;4899752;29;20132;-88
2022/10/10 10:49:47;;;;;;;7.22;1.90;;;;;;;;;;4899751;29;20405;-89
2022/10/10 10:52:36;;;;;;;8.20;1.60;;;;;;;;;;4898752;29;20055;-88
2022/10/10 10:55:13;;;;;;;6.40;1.70;;;;;;;;;;4899308;29;20041;-87
2022/10/10 10:58:03;;;;;;;4.95;1.80;;;;;;;;;;4900319;29;20079;-88
2022/10/10 11:00:36;;;;;;;8.77;1.80;;;;;;;;;;4900048;29;20037;-87
2022/10/10 11:03:20;;;;;;;6.85;1.65;;;;;;;;;;4900503;29;20069;-87
2022/10/10 11:06:08;;;;;;;3.80;1.70;;;;;;;;;;4899477;29;20047;-86
2022/10/10 11:08:36;;;;;;;5.03;1.73;;;;;;;;;;4900195;29;20447;-87
2022/10/10 11:11:27;;;;;;;5.78;1.83;;;;;;;;;;4899140;29;20140;-86
2022/10/10 11:14:21;;;;;;;5.78;2.00;;;;;;;;;;4900203;29;20044;-87
2022/10/10 11:17:10;;;;;;;4.15;1.50;;;;;;;;;;4899676;29;20482;-87
2022/10/10 11:19:59;;;;;;;5.57;1.80;;;;;;;;;;4900075;29;20040;-88
2022/10/10 11:22:30;;;;;;;6.20;1.60;;;;;;;;;;4900120;29;20041;-87
2022/10/10 11:25:05;;;;;;;8.43;2.05;;;;;;;;;;4899271;29;20528;-86
2022/10/10 11:27:39;;;;;;;5.55;1.70;;;;;;;;;;4900269;29;20045;-87
2022/10/10 11:30:22;;;;;;;3.72;1.80;;;;;;;;;;4901055;29;20145;-87
2022/10/10 11:32:59;;;;;;;5.17;2.13;;;;;;;;;;4900254;29;20029;-87
2022/10/10 11:35:34;;;;;;;5.35;1.70;;;;;;;;;;4899680;29;20304;-87
2022/10/10 11:38:15;;;;;;;6.05;1.67;;;;;;;;;;4899400;29;20036;-87
2022/10/10 11:40:52;;;;;;;3.25;1.33;;;;;;;;;;4898833;29;20120;-87
2022/10/10 11:43:39;;;;;;;6.53;1.80;;;;;;;;;;4899692;29;20506;-87
2022/10/10 11:46:32;;;;;;;6.53;1.70;;;;;;;;;;4898570;29;20041;-87
2022/10/10 11:49:13;;;;;;;6.07;1.77;;;;;;;;;;4900504;29;20059;-87
2022/10/10 11:51:57;;;;;;;4.63;1.45;;;;;;;;;;4899928;29;20047;-89
2022/10/10 11:54:25;;;;;;;4.50;1.63;;;;;;;;;;4886244;29;20406;-88
2022/10/10 11:56:57;;;;;;;7.18;1.80;;;;;;;;;;4904466;29;20036;-88
2022/10/10 11:59:25;;;;;;;7.65;1.90;;;;;;;;;;4905021;29;20048;-87
2022/10/10 12:01:54;;;;;;;6.78;1.70;;;;;;;;;;4903422;29;20054;-87
2022/10/10 12:04:21;;;;;;;7.00;1.67;;;;;;;;;;4909818;29;20502;-88
2022/10/10 12:06:53;;;;;;;5.07;1.73;;;;;;;;;;4904097;29;20033;-87
2022/10/10 12:09:29;;;;;;;7.97;2.20;;;;;;;;;;4900669;29;20111;-88
2022/10/10 12:12:14;;;;;;;6.97;1.80;;;;;;;;;;4900916;29;20417;-88
2022/10/10 12:14:44;;;;;;;5.72;1.92;;;;;;;;;;4904985;29;20047;-88
2022/10/10 12:17:32;;;;;;;5.97;1.85;;;;;;;;;;4903268;29;20052;-87
2022/10/10 12:20:13;;;;;;;6.35;1.67;;;;;;;;;;4900683;29;20391;-87
2022/10/10 12:22:39;;;;;;;6.82;1.88;;;;;;;;;;4902447;29;20490;-88
2022/10/10 12:25:20;;;;;;;5.97;1.90;;;;;;;;;;4902982;29;20029;-87
2022/10/10 12:28:01;;;;;;;7.35;1.67;;;;;;;;;;4905699;29;20108;-87
2022/10/10 12:30:27;;;;;;;7.35;2.00;;;;;;;;;;4902556;29;20040;-88
2022/10/10 12:32:54;;;;;;;5.20;1.80;;;;;;;;;;4903417;29;20029;-87
2022/10/10 12:35:48;;;;;;;6.20;1.90;;;;;;;;;;4917819;29;20067;-87
2022/10/10 12:38:24;;;;;;;6.20;1.73;;;;;;;;;;4905471;29;20498;-87
2022/10/10 12:40:56;;;;;;;5.82;1.70;;;;;;;;;;4903202;29;20041;-87
2022/10/10 12:43:35;;;;;;;6.88;1.65;;;;;;;;;;4906846;29;20051;-88
2022/10/10 12:46:16;;;;;;;5.28;1.77;;;;;;;;;;4920396;29;20065;-90
2022/10/10 12:48:42;;;;;;;7.00;1.98;;;;;;;;;;4901346;29;20036;-89
2022/10/10 12:51:21;;;;;;;3.88;1.88;;;;;;;;;;4901578;29;20024;-88
2022/10/10 12:53:54;;;;;;;8.70;2.10;;;;;;;;;;4900784;29;20032;-87
2022/10/10 12:56:35;;;;;;;7.47;1.90;;;;;;;;;;4900597;29;20048;-88
2022/10/10 12:59:01;;;;;;;6.75;2.00;;;;;;;;;;4899610;29;20064;-88
2022/10/10 13:01:31;;;;;;;9.50;1.77;;;;;;;;;;4915548;29;20028;-88
2022/10/10 13:03:57;;;;;;;6.00;2.03;;;;;;;;;;4899270;29;20040;-88
2022/10/10 13:06:42;;;;;;;3.58;1.50;;;;;;;;;;4899562;29;20032;-88
2022/10/10 13:09:14;;;;;;;8.15;2.08;;;;;;;;;;4915661;29;20033;-88
2022/10/10 13:12:04;;;;;;;7.25;1.92;;;;;;;;;;4900609;29;20044;-88
2022/10/10 13:14:41;;;;;;;5.50;1.83;;;;;;;;;;4892517;29;20055;-88
2022/10/10 13:17:30;;;;;;;5.13;1.80;;;;;;;;;;4900404;29;20100;-88
2022/10/10 13:19:58;;;;;;;6.13;1.80;;;;;;;;;;4906890;29;20032;-87
2022/10/10 13:22:25;;;;;;;4.05;1.60;;;;;;;;;;4913928;29;20609;-87
2022/10/10 13:24:51;;;;;;;6.95;1.58;;;;;;;;;;4923503;29;20040;-87
2022/10/10 13:27:24;;;;;;;6.00;1.67;;;;;;;;;;4925946;29;20091;-87
2022/10/10 13:29:51;;;;;;;7.53;1.80;;;;;;;;;;4944044;29;20525;-87
2022/10/10 13:32:36;;;;;;;15.18;2.92;;;;;;;;;;4942025;29;20059;-87
2022/10/10 13:35:12;;;;;;;6.63;1.75;;;;;;;;;;4917776;29;20473;-87
2022/10/10 13:37:39;;;;;;;7.43;2.20;;;;;;;;;;4925111;29;20036;-86
2022/10/10 13:40:12;;;;;;;4.30;1.60;;;;;;;;;;4925987;29;20028;-88
2022/10/10 13:42:38;;;;;;;6.43;1.80;;;;;;;;;;4926064;29;20494;-87
2022/10/10 13:45:33;;;;;;;6.72;1.70;;;;;;;;;;4924883;29;20042;-87
2022/10/10 13:47:59;;;;;;;5.63;1.83;;;;;;;;;;4924766;29;20070;-87
2022/10/10 13:50:42;;;;;;;6.88;1.80;;;;;;;;;;4907279;29;20072;-87
2022/10/10 13:53:27;;;;;;;;;;;;;;;;;;4924888;29;20072;-87
2022/10/10 13:56:15;;;;;;;4.88;1.80;;;;;;;;;;4924482;29;19919;-86
2022/10/10 13:59:12;;;;;;;9.20;1.80;;;;;;;;;;4924487;29;20040;-86
2022/10/10 14:01:43;;;;;;;3.80;1.50;;;;;;;;;;4931989;29;20577;-85
2022/10/10 14:04:12;;;;;;;4.55;1.60;;;;;;;;;;4923024;29;20036;-87
2022/10/10 14:06:58;;;;;;;5.32;1.85;;;;;;;;;;4920700;29;20032;-87
2022/10/10 14:09:42;;;;;;;5.70;1.90;;;;;;;;;;4912364;29;20036;-86
2022/10/10 14:12:37;;;;;;;6.68;1.65;;;;;;;;;;4913002;29;20048;-88
2022/10/10 14:15:03;;;;;;;8.85;1.98;;;;;;;;;;4901432;29;20047;-86
2022/10/10 14:17:30;;;;;;;6.80;2.05;;;;;;;;;;4923458;29;20047;-87
2022/10/10 14:19:55;;;;;;;6.07;1.92;;;;;;;;;;4923030;29;20122;-86
2022/10/10 14:22:21;;;;;;;6.50;1.80;;;;;;;;;;4922566;29;20060;-88
2022/10/10 14:24:48;;;;;;;4.72;1.70;;;;;;;;;;4923521;29;20040;-88
2022/10/10 14:27:26;;;;;;;6.22;1.88;;;;;;;;;;4923364;29;20593;-88
2022/10/10 14:29:54;;;;;;;5.72;2.00;;;;;;;;;;4924242;29;20032;-88
2022/10/10 14:32:20;;;;;;;7.13;2.00;;;;;;;;;;4923998;29;20059;-87
2022/10/10 14:34:46;;;;;;;6.40;2.20;;;;;;;;;;4923572;29;20039;-87
2022/10/10 14:37:38;;;;;;;11.82;2.20;;;;;;;;;;4924504;29;20040;-88
2022/10/10 14:40:18;;;;;;;7.05;2.20;;;;;;;;;;4921859;29;20136;-87
2022/10/10 14:42:44;;;;;;;4.90;2.00;;;;;;;;;;4939802;29;20040;-87
2022/10/10 14:45:15;;;;;;;9.50;2.15;;;;;;;;;;4906187;29;20038;-87
2022/10/10 14:47:41;;;;;;;4.65;1.92;;;;;;;;;;4923290;29;20095;-88
2022/10/10 14:50:30;;;;;;;3.80;1.80;;;;;;;;;;4924135;29;20028;-86
2022/10/10 14:52:55;;;;;;;8.48;3.22;;;;;;;;;;4924540;29;20096;-87
2022/10/10 14:55:21;;;;;;;13.60;4.75;;;;;;;;;;4923992;29;20028;-89
2022/10/10 14:57:48;;;;;;;12.00;4.15;;;;;;;;;;4924117;29;20044;-88
2022/10/10 15:00:16;;;;;;;10.65;2.60;;;;;;;;;;4922860;29;20040;-87
2022/10/10 15:02:42;;;;;;;5.68;1.92;;;;;;;;;;4925433;29;20068;-88
2022/10/10 15:05:07;;;;;;;7.65;2.05;;;;;;;;;;4921158;29;20040;-85